EDT,Max TemperatureF,Mean TemperatureF,Min TemperatureF,Max Dew PointF,MeanDew PointF,Min DewpointF,Max Humidity, Mean Humidity, Min Humidity, Max Sea Level PressureIn, Mean Sea Level PressureIn, Min Sea Level PressureIn, Max VisibilityMiles, Mean VisibilityMiles, Min VisibilityMiles, Max Wind SpeedMPH, Mean Wind SpeedMPH, Max Gust SpeedMPH,PrecipitationIn, CloudCover, Events, WindDirDegrees
2013-7-1,77,74,70,73,71,68,100,94,87,30.03,29.96,29.90,10,6,0,10,2,16,1.02,8,Fog-Rain,139
2013-7-2,85,79,73,73,72,70,94,80,65,30.14,30.08,30.02,10,9,2,13,4,18,0.08,6,Rain,156
2013-7-3,87,80,72,74,71,69,88,72,55,30.22,30.17,30.14,10,10,10,17,4,28,T,3,,202
2013-7-4,90,81,71,73,71,70,100,76,52,30.23,30.17,30.11,10,9,5,15,5,22,0.00,2,,224
2013-7-5,92,83,73,72,71,69,87,68,49,30.19,30.12,30.04,10,10,10,17,4,23,0.00,0,,232
2013-7-6,92,84,75,73,72,70,94,72,49,30.10,30.06,29.99,10,10,7,14,5,17,0.00,1,,240
2013-7-7,93,83,73,75,72,65,93,73,52,30.04,29.97,29.90,10,8,2,13,4,22,T,1,,228
2013-7-8,89,79,69,69,67,64,97,75,53,30.03,29.98,29.93,10,10,2,20,5,24,0.11,2,Rain,228
2013-7-9,88,78,67,74,69,66,100,78,55,30.06,30.02,29.97,10,8,2,14,1,30,0.03,2,Rain,178
2013-7-10,86,79,71,75,72,69,93,77,61,29.98,29.87,29.77,10,8,5,15,4,21,0.05,4,,195
2013-7-11,84,76,67,71,68,63,93,74,55,29.93,29.84,29.77,10,10,7,13,2,17,0.01,3,Rain,347
2013-7-12,81,73,64,66,63,58,87,71,54,30.13,30.04,29.94,10,10,10,15,6,24,0.02,3,Rain,57
2013-7-13,81,74,66,72,67,61,87,81,74,30.27,30.22,30.14,10,10,4,8,2,23,T,8,Rain,29
2013-7-14,91,82,72,75,72,70,100,76,52,30.32,30.28,30.20,10,6,0,10,2,21,0.03,6,Fog-Rain,235
2013-7-15,93,83,73,76,72,70,94,72,49,30.23,30.18,30.12,10,10,10,13,3,18,0.00,3,,313
2013-7-16,93,80,67,72,69,64,97,68,39,30.21,30.16,30.12,10,9,4,16,3,21,0.00,0,,18
2013-7-17,94,82,70,72,70,65,97,68,39,30.20,30.12,30.03,10,9,5,10,1,24,0.00,0,,247
2013-7-18,96,85,74,74,72,70,93,68,42,30.04,29.99,29.92,10,10,6,10,2,15,T,1,Thunderstorm,219
2013-7-19,97,86,74,74,73,73,94,71,48,29.94,29.85,29.74,10,9,7,20,6,26,0.00,0,,221
2013-7-20,93,83,73,74,70,67,87,66,44,29.84,29.75,29.70,10,9,6,17,6,26,T,1,,242
2013-7-21,88,78,68,70,65,58,93,65,36,29.95,29.91,29.84,10,10,10,9,1,16,0.02,2,,351
2013-7-22,85,75,65,73,70,64,94,78,61,29.97,29.88,29.79,10,8,2,10,3,25,0.17,4,Rain,124
2013-7-23,89,80,70,74,71,68,100,76,52,29.77,29.64,29.55,10,7,0,18,3,26,1.36,6,Fog-Rain-Thunderstorm,198
2013-7-24,79,70,61,70,63,50,100,77,54,29.97,29.75,29.60,10,10,9,17,5,24,0.01,5,,11
2013-7-25,73,66,58,62,54,48,93,77,61,30.07,30.03,29.98,10,10,10,16,6,21,0.00,7,,13
2013-7-26,81,72,63,64,59,55,87,68,48,30.03,30.01,29.97,10,10,6,10,4,20,0.01,3,Rain,5
2013-7-27,84,71,58,64,61,57,100,72,43,30.04,30.00,29.93,10,10,9,12,3,18,0.00,0,,179
2013-7-28,78,72,65,69,66,62,97,82,67,29.98,29.95,29.92,10,8,2,10,2,16,0.22,5,Rain,125
2013-7-29,84,73,61,68,64,52,100,68,36,30.09,30.00,29.95,10,6,0,15,4,20,0.00,4,Fog,238
2013-7-30,80,68,56,60,57,54,97,70,42,30.15,30.12,30.08,10,10,10,12,3,15,0.00,2,,276
2013-7-31,82,69,56,63,59,54,93,68,42,30.15,30.09,30.01,10,10,10,7,1,12,0.00,0,,178